• Join FlightAware (Why Join?)
  • Login
  • US Flag 
09:23AM EDT


 

Airport Tracker/Info


-or-


 

Live Flight TrackerFlight Track Log ✈ ERR709 ✈ 16-Sep-2013 ✈ PAFA / FAI - PANC

Flight Track Log - Related Links

Times and Time Zones

All times are in EDT time to prevent confusion due to time zone crossing. See the ERR709 flight status page for this flight to view local times or setup timezone preferences in your user account.

Time Position Orientation Groundspeed Altitude Reporting Facility
EDT Latitude Longitude Course Direction KTS MPH feet Rate Location/Type
02:03AM 64.8500 -147.8167 217° Southwest 170 196 4,400  Level Anchorage Center
02:04AM 64.8333 -147.9333 251° West 180 207 6,800 2,100 Climbing Anchorage Center
02:05AM 64.8000 -148.0167 227° Southwest 190 219 8,700 2,100 Climbing Anchorage Center
02:06AM 64.7500 -148.0500 196° South 180 207 11,100 2,100 Climbing Anchorage Center
02:07AM 64.7000 -148.0833 196° South 200 230 12,900 1,980 Climbing Anchorage Center
02:08AM 64.3854 -148.1397 217° Southwest  Level Estimated
02:08AM 64.6500 -148.1167 196° South 190 219 15,100  Level Anchorage Center
02:09AM 64.6000 -148.1500 196° South 190 219 16,700 1,680 Climbing Anchorage Center
02:10AM 64.5333 -148.1667 186° South 200 230 18,500 1,500 Climbing Anchorage Center
02:11AM 64.4833 -148.2000 196° South 200 230 19,800 1,200 Climbing Anchorage Center
02:12AM 64.4333 -148.2333 196° South 200 230 21,000 540 Climbing Anchorage Center
02:13AM 64.3667 -148.2667 192° South 240 276 21,000  Level Anchorage Center
02:14AM 64.3000 -148.3000 192° South 250 288 21,000  Level Anchorage Center
02:15AM 64.2333 -148.3500 198° South 260 299 21,000  Level Anchorage Center
02:16AM 64.1667 -148.3833 192° South 260 299 21,000  Level Anchorage Center
02:17AM 64.0833 -148.4333 195° South 260 299 21,000  Level Anchorage Center
02:18AM 64.0167 -148.4667 192° South 260 299 21,000  Level Anchorage Center
02:19AM 63.9500 -148.5000 192° South 260 299 21,000  Level Anchorage Center
02:20AM 63.8833 -148.5500 198° South 260 299 21,000  Level Anchorage Center
02:21AM 63.8000 -148.5833 190° South 260 299 21,000  Level Anchorage Center
02:22AM 63.7333 -148.6333 198° South 260 299 21,000  Level Anchorage Center
02:23AM 63.6667 -148.6667 193° South 270 311 21,000  Level Anchorage Center
02:24AM 63.6000 -148.7167 198° South 270 311 21,000  Level Anchorage Center
02:25AM 63.5167 -148.7500 190° South 270 311 21,000  Level Anchorage Center
02:26AM 63.4500 -148.8000 199° South 270 311 21,000  Level Anchorage Center
02:27AM 63.3833 -148.8333 193° South 270 311 21,000  Level Anchorage Center
02:28AM 63.3000 -148.8833 195° South 260 299 21,000  Level Anchorage Center
02:29AM 63.2333 -148.9167 193° South 270 311 21,000  Level Anchorage Center
02:30AM 63.1667 -148.9500 193° South 270 311 21,000  Level Anchorage Center
02:31AM 63.1000 -149.0000 199° South 280 322 21,000  Level Anchorage Center
02:32AM 63.0333 -149.0333 193° South 260 299 21,000  Level Anchorage Center
02:33AM 62.9333 -149.0833 193° South 270 311 21,000  Level Anchorage Center
02:34AM 62.8667 -149.1167 193° South 270 311 21,000  Level Anchorage Center
02:35AM 62.8000 -149.1667 199° South 270 311 21,000  Level Anchorage Center
02:36AM 62.7167 -149.2000 190° South 270 311 21,000  Level Anchorage Center
02:37AM 62.6500 -149.2500 199° South 270 311 21,000  Level Anchorage Center
02:38AM 62.5667 -149.2833 190° South 270 311 21,000  Level Anchorage Center
02:39AM 62.5000 -149.3333 199° South 260 299 21,000  Level Anchorage Center
02:40AM 62.4333 -149.3667 193° South 270 311 21,000  Level Anchorage Center
02:41AM 62.3500 -149.4000 191° South 270 311 21,000 -60 Level Anchorage Center
02:42AM 62.2833 -149.4333 193° South 270 311 20,900  Descending Anchorage Center
02:43AM 62.2000 -149.4667 191° South 270 311 21,000  Climbing Anchorage Center
02:44AM 62.1333 -149.5000 193° South 270 311 20,900 -360 Descending Anchorage Center
02:45AM 62.0667 -149.5500 199° South 270 311 20,300 -960 Descending Anchorage Center
02:46AM 61.9833 -149.5833 191° South 270 311 19,000 -1,320 Descending Anchorage Center
02:48AM 61.8682 -149.6160 193° South  Level FlightAware Approximate
02:55AM 61.4420 -149.8457 193° South  Level FlightAware Approximate
02:56AM 61.3811 -149.8780 196° South  Level FlightAware Approximate
02:57AM 61.3207 -149.9142 196° South  Level FlightAware Approximate
02:58AM 61.2591 -149.9397 191° South  Level FlightAware Approximate
02:59AM 61.1977 -149.9678 194° South  Level FlightAware Approximate
03:00AM 61.1667 -149.9833 194° South  Level FlightAware Approximate
03:01AM 61.1741 -149.9982 194° South  Level Estimated
03:02AM 61.1741 -149.9982 194° South  Level Estimated
03:03AM 61.1741 -149.9982 194° South  Level Estimated
03:04AM 61.1741 -149.9982 194° South  Level Estimated
03:05AM 61.1741 -149.9982 194° South  Level Estimated
03:06AM 61.1741 -149.9982 194° South  Level Estimated
03:07AM 61.1741 -149.9982 194° South  Level Estimated
03:08AM 61.1741 -149.9982 194° South  Level Estimated
03:09AM 61.1741 -149.9982 194° South  Level Estimated
03:10AM 61.1741 -149.9982 194° South  Level Estimated
03:11AM 61.1741 -149.9982 194° South  Level Estimated
03:12AM 61.1741 -149.9982 194° South  Level Estimated
03:13AM 61.1741 -149.9982 194° South  Level Estimated
03:14AM 61.1741 -149.9982 194° South  Level Estimated
03:15AM 61.1741 -149.9982 194° South  Level Estimated